Time;durP1;ratioP1;P1;durP2;ratioP2;P2;SDS_P1;SDS_P2;PMS_P1;PMS_P2;Temp;Humidity;BMP_temperature;BMP_pressure;BME280_temperature;BME280_humidity;BME280_pressure;Samples;Min_cycle;Max_cycle;Signal;HPM_P1;HPM_P2
2022/07/07 00:01:52;;;;;;;1999.90;999.90;;;16.50;99.90;;;;;;5082035;28;20044;-78
2022/07/07 00:04:17;;;;;;;1999.90;999.90;;;16.50;99.90;;;;;;5050168;28;20047;-78
2022/07/07 00:06:43;;;;;;;1999.90;999.90;;;16.40;99.90;;;;;;5050030;28;20032;-78
2022/07/07 00:09:09;;;;;;;1999.90;999.90;;;16.50;99.90;;;;;;5065515;28;20082;-78
2022/07/07 00:11:35;;;;;;;1999.90;999.90;;;16.40;99.90;;;;;;5066318;28;20435;-78
2022/07/07 00:14:01;;;;;;;1999.90;999.90;;;16.50;99.90;;;;;;5062780;28;20445;-78
2022/07/07 00:16:26;;;;;;;1999.90;999.90;;;16.50;99.90;;;;;;5065972;28;20044;-78
2022/07/07 00:18:52;;;;;;;1999.90;999.90;;;16.50;99.90;;;;;;5049591;28;20048;-77
2022/07/07 00:21:18;;;;;;;1999.90;999.90;;;16.40;99.90;;;;;;5059559;28;20179;-78
2022/07/07 00:23:44;;;;;;;1999.90;999.90;;;16.40;99.90;;;;;;5065484;28;20464;-78
2022/07/07 00:26:10;;;;;;;1999.90;999.90;;;16.40;99.90;;;;;;5060339;28;20041;-78
2022/07/07 00:28:36;;;;;;;1999.90;999.90;;;16.40;99.90;;;;;;5058627;28;20038;-78
2022/07/07 00:31:02;;;;;;;1999.90;999.90;;;16.40;99.90;;;;;;5059356;28;20041;-78
2022/07/07 00:33:27;;;;;;;1999.90;999.90;;;16.50;99.90;;;;;;5061022;28;20038;-78
2022/07/07 00:35:53;;;;;;;1999.90;999.90;;;16.40;99.90;;;;;;5060684;28;20115;-78
2022/07/07 00:38:19;;;;;;;1999.90;999.90;;;16.40;99.90;;;;;;5062788;28;20048;-78
2022/07/07 00:40:52;;;;;;;1999.90;999.90;;;16.40;99.90;;;;;;5062543;28;20527;-76
2022/07/07 00:43:18;;;;;;;1999.90;999.90;;;16.50;99.90;;;;;;5079462;28;20051;-79
2022/07/07 00:45:49;;;;;;;1999.90;999.90;;;16.40;99.90;;;;;;5030047;28;20510;-78
2022/07/07 00:48:17;;;;;;;1999.90;999.90;;;16.40;99.90;;;;;;5061985;28;20037;-79
2022/07/07 00:50:44;;;;;;;1999.90;999.90;;;16.40;99.90;;;;;;5028635;28;20119;-79
2022/07/07 00:53:10;;;;;;;1999.90;999.90;;;16.40;99.90;;;;;;5088076;28;20025;-79
2022/07/07 00:55:36;;;;;;;1999.90;999.90;;;16.30;99.90;;;;;;5067999;28;20090;-80
2022/07/07 00:58:02;;;;;;;1999.90;999.90;;;16.20;99.90;;;;;;5059996;28;20037;-80
2022/07/07 01:00:28;;;;;;;1999.90;999.90;;;16.20;99.90;;;;;;5058105;28;20076;-80
2022/07/07 01:02:54;;;;;;;1999.90;999.90;;;16.20;99.90;;;;;;5057577;28;20041;-79
2022/07/07 01:05:19;;;;;;;1999.90;999.90;;;16.10;99.90;;;;;;5046416;28;20059;-79
2022/07/07 01:07:45;;;;;;;1999.90;999.90;;;16.10;99.90;;;;;;5061385;28;20037;-80
2022/07/07 01:10:12;;;;;;;1999.90;999.90;;;16.00;99.90;;;;;;5028708;28;20045;-79
2022/07/07 01:12:39;;;;;;;1999.90;999.90;;;16.00;99.90;;;;;;5038392;28;20083;-79
2022/07/07 01:15:07;;;;;;;1999.90;999.90;;;16.00;99.90;;;;;;5047265;28;20611;-79
2022/07/07 01:17:33;;;;;;;1999.90;999.90;;;15.90;99.90;;;;;;5034648;28;20044;-79
2022/07/07 01:20:00;;;;;;;1999.90;999.90;;;16.00;99.90;;;;;;5035395;28;20048;-79
2022/07/07 01:22:29;;;;;;;1999.90;999.90;;;16.00;99.90;;;;;;5051579;28;20044;-80
2022/07/07 01:24:55;;;;;;;1999.90;999.90;;;16.00;99.90;;;;;;5068211;28;20132;-78
2022/07/07 01:27:21;;;;;;;1999.90;999.90;;;15.90;99.90;;;;;;5067454;28;20131;-77
2022/07/07 01:29:52;;;;;;;1999.90;999.90;;;15.90;99.90;;;;;;5081652;28;20556;-80
2022/07/07 01:32:19;;;;;;;1999.90;999.90;;;15.90;99.90;;;;;;5044983;28;20032;-78
2022/07/07 01:34:48;;;;;;;1999.90;999.90;;;15.90;99.90;;;;;;5089485;28;20037;-79
2022/07/07 01:37:14;;;;;;;1999.90;999.90;;;15.80;99.90;;;;;;5045053;28;20044;-80
2022/07/07 01:39:41;;;;;;;1999.90;999.90;;;15.90;99.90;;;;;;5037411;28;20368;-80
2022/07/07 01:42:07;;;;;;;1999.90;999.90;;;15.90;99.90;;;;;;5087989;28;20055;-80
2022/07/07 01:44:34;;;;;;;1999.90;999.90;;;15.90;99.90;;;;;;5072538;28;20490;-79
2022/07/07 01:47:01;;;;;;;1999.90;999.90;;;15.80;99.90;;;;;;5073015;28;20047;-80
2022/07/07 01:49:29;;;;;;;1999.90;999.90;;;15.80;99.90;;;;;;5056793;28;20514;-80
2022/07/07 01:51:54;;;;;;;1999.90;999.90;;;15.90;99.90;;;;;;5074546;28;20435;-79
2022/07/07 01:54:20;;;;;;;1999.90;999.90;;;15.80;99.90;;;;;;5074627;28;20040;-79
2022/07/07 01:56:46;;;;;;;1999.90;999.90;;;15.90;99.90;;;;;;5073079;28;20032;-79
2022/07/07 01:59:12;;;;;;;1999.90;999.90;;;15.90;99.90;;;;;;5052571;28;20541;-79
2022/07/07 02:01:38;;;;;;;1999.90;999.90;;;15.80;99.90;;;;;;5101581;27;20036;-79
2022/07/07 02:04:04;;;;;;;1999.90;999.90;;;15.90;99.90;;;;;;5064429;28;20040;-79
2022/07/07 02:06:30;;;;;;;1999.90;999.90;;;15.80;99.90;;;;;;5059164;28;20081;-79
2022/07/07 02:08:56;;;;;;;1999.90;999.90;;;15.90;99.90;;;;;;5071687;28;20040;-78
2022/07/07 02:11:22;;;;;;;1999.90;999.90;;;15.90;99.90;;;;;;5056915;28;20551;-79
2022/07/07 02:13:50;;;;;;;1999.90;999.90;;;15.90;99.90;;;;;;5069004;28;20035;-79
2022/07/07 02:16:18;;;;;;;1999.90;999.90;;;15.90;99.90;;;;;;5066473;28;20040;-78
2022/07/07 02:18:45;;;;;;;1999.90;999.90;;;15.90;99.90;;;;;;5074273;28;20578;-79
2022/07/07 02:21:12;;;;;;;1999.90;999.90;;;15.90;99.90;;;;;;5054816;28;20047;-79
2022/07/07 02:23:40;;;;;;;1999.90;999.90;;;15.90;99.90;;;;;;5070335;28;20118;-79
2022/07/07 02:26:05;;;;;;;1999.90;999.90;;;15.90;99.90;;;;;;5056680;28;20052;-78
2022/07/07 02:28:31;;;;;;;1999.90;999.90;;;15.90;99.90;;;;;;5089112;28;20047;-79
2022/07/07 02:30:58;;;;;;;1999.90;999.90;;;15.90;99.90;;;;;;5056154;28;20045;-78
2022/07/07 02:33:24;;;;;;;1999.90;999.90;;;15.90;99.90;;;;;;5066774;28;20517;-78
2022/07/07 02:35:50;;;;;;;1999.90;999.90;;;15.90;99.90;;;;;;5072198;28;20051;-76
2022/07/07 02:38:17;;;;;;;1999.90;999.90;;;15.90;99.90;;;;;;5070998;28;20135;-77
2022/07/07 02:40:42;;;;;;;1999.90;999.90;;;15.90;99.90;;;;;;5053386;28;20048;-78
2022/07/07 02:43:12;;;;;;;1999.90;999.90;;;15.80;99.90;;;;;;5070967;28;20054;-79
2022/07/07 02:45:42;;;;;;;1999.90;999.90;;;15.80;99.90;;;;;;5053785;28;20188;-79
2022/07/07 02:48:09;;;;;;;1999.90;999.90;;;15.80;99.90;;;;;;5068887;28;20101;-79
2022/07/07 02:50:36;;;;;;;1999.90;999.90;;;15.80;99.90;;;;;;5065419;28;20047;-79
2022/07/07 02:53:02;;;;;;;1999.90;999.90;;;15.80;99.90;;;;;;5057034;28;20051;-79
2022/07/07 02:55:28;;;;;;;1999.90;999.90;;;15.80;99.90;;;;;;5057353;28;20032;-78
2022/07/07 02:57:54;;;;;;;1999.90;999.90;;;15.80;99.90;;;;;;5065841;28;20113;-79
2022/07/07 03:00:19;;;;;;;1999.90;999.90;;;15.80;99.90;;;;;;5081143;28;20048;-78
2022/07/07 03:02:45;;;;;;;1999.90;999.90;;;15.80;99.90;;;;;;5088506;28;20209;-78
2022/07/07 03:05:13;;;;;;;1999.90;999.90;;;15.80;99.90;;;;;;5072682;28;20126;-78
2022/07/07 03:07:39;;;;;;;1999.90;999.90;;;15.80;99.90;;;;;;5068631;28;20051;-78
2022/07/07 03:10:08;;;;;;;1999.90;999.90;;;15.70;99.90;;;;;;5084030;28;20036;-79
2022/07/07 03:12:34;;;;;;;1999.90;999.90;;;15.70;99.90;;;;;;5071180;28;20036;-79
2022/07/07 03:15:00;;;;;;;1999.90;999.90;;;15.80;99.90;;;;;;5087242;28;20036;-79
2022/07/07 03:17:26;;;;;;;1999.90;999.90;;;15.80;99.90;;;;;;5059548;28;20051;-79
2022/07/07 03:19:52;;;;;;;1999.90;999.90;;;15.70;99.90;;;;;;5102628;28;20040;-79
2022/07/07 03:22:17;;;;;;;1999.90;999.90;;;15.70;99.90;;;;;;5051982;28;20067;-78
2022/07/07 03:24:44;;;;;;;1999.90;999.90;;;15.80;99.90;;;;;;5055843;28;20093;-78
2022/07/07 03:27:09;;;;;;;1999.90;999.90;;;15.70;99.90;;;;;;5055193;28;20042;-78
2022/07/07 03:29:35;;;;;;;1999.90;999.90;;;15.70;99.90;;;;;;5081749;28;20048;-79
2022/07/07 03:32:00;;;;;;;1999.90;999.90;;;15.60;99.90;;;;;;5065570;28;20049;-77
2022/07/07 03:34:26;;;;;;;1999.90;999.90;;;15.60;99.90;;;;;;5102397;27;20028;-79
2022/07/07 03:36:52;;;;;;;1999.90;999.90;;;15.50;99.90;;;;;;5081842;28;20036;-78
2022/07/07 03:39:18;;;;;;;1999.90;999.90;;;15.50;99.90;;;;;;5073867;28;20039;-79
2022/07/07 03:41:43;;;;;;;1999.90;999.90;;;15.40;99.90;;;;;;5068296;28;20105;-78
2022/07/07 03:44:09;;;;;;;1999.90;999.90;;;15.40;99.90;;;;;;5062736;28;20048;-78
2022/07/07 03:46:34;;;;;;;1999.90;999.90;;;15.40;99.90;;;;;;5078533;28;20076;-79
2022/07/07 03:49:00;;;;;;;1999.90;999.90;;;15.40;99.90;;;;;;5069356;28;20524;-78
2022/07/07 03:51:26;;;;;;;1999.90;999.90;;;15.30;99.90;;;;;;5069754;28;20039;-80
2022/07/07 03:53:51;;;;;;;1999.90;999.90;;;15.30;99.90;;;;;;5069792;28;20477;-80
2022/07/07 03:56:17;;;;;;;1999.90;999.90;;;15.30;99.90;;;;;;5058927;28;20067;-74
2022/07/07 03:58:43;;;;;;;1999.90;999.90;;;15.30;99.90;;;;;;5056261;28;20059;-78
2022/07/07 04:01:08;;;;;;;1999.90;999.90;;;15.20;99.90;;;;;;5068644;28;20043;-80
2022/07/07 04:03:34;;;;;;;1999.90;999.90;;;15.20;99.90;;;;;;5070454;28;20043;-80
2022/07/07 04:06:00;;;;;;;1999.90;999.90;;;15.10;99.90;;;;;;5068630;28;20047;-80
2022/07/07 04:08:26;;;;;;;1999.90;999.90;;;15.00;99.90;;;;;;5070234;28;20047;-80
2022/07/07 04:10:52;;;;;;;1999.90;999.90;;;15.00;99.90;;;;;;5053928;28;20407;-80
2022/07/07 04:13:17;;;;;;;1999.90;999.90;;;14.90;99.90;;;;;;5061821;28;20127;-80
2022/07/07 04:15:43;;;;;;;1999.90;999.90;;;14.90;99.90;;;;;;5069740;28;20076;-77
2022/07/07 04:18:08;;;;;;;1999.90;999.90;;;14.90;99.90;;;;;;5067043;28;20083;-76
2022/07/07 04:20:34;;;;;;;1999.90;999.90;;;14.80;99.90;;;;;;5071927;28;20518;-77
2022/07/07 04:22:59;;;;;;;1999.90;999.90;;;14.80;99.90;;;;;;5072871;28;20035;-79
2022/07/07 04:25:25;;;;;;;1999.90;999.90;;;14.80;99.90;;;;;;5068390;28;20040;-79
2022/07/07 04:27:51;;;;;;;1999.90;999.90;;;14.70;99.90;;;;;;5071265;28;20123;-78
2022/07/07 04:30:16;;;;;;;1999.90;999.90;;;14.70;99.90;;;;;;5073153;28;20043;-79
2022/07/07 04:32:42;;;;;;;1999.90;999.90;;;14.70;99.90;;;;;;5070654;28;20118;-79
2022/07/07 04:35:09;;;;;;;1999.90;999.90;;;14.70;99.90;;;;;;5087838;28;20047;-79
2022/07/07 04:37:35;;;;;;;1999.90;999.90;;;14.70;99.90;;;;;;5068431;28;20036;-79
2022/07/07 04:40:03;;;;;;;1999.90;999.90;;;14.70;99.90;;;;;;5042115;28;20071;-80
2022/07/07 04:42:29;;;;;;;1999.90;999.90;;;14.70;99.90;;;;;;5070957;28;20106;-78
2022/07/07 04:44:55;;;;;;;1999.90;999.90;;;14.80;99.90;;;;;;5059866;28;20507;-79
2022/07/07 04:47:20;;;;;;;1999.90;999.90;;;14.80;99.90;;;;;;5052672;28;20097;-79
2022/07/07 04:49:46;;;;;;;1999.90;999.90;;;14.80;99.90;;;;;;5055000;28;20032;-80
2022/07/07 04:52:12;;;;;;;1999.90;999.90;;;14.80;99.90;;;;;;5052875;28;20482;-79
2022/07/07 04:54:37;;;;;;;1999.90;999.90;;;14.80;99.90;;;;;;5073618;28;20032;-79
2022/07/07 04:57:03;;;;;;;1999.90;999.90;;;14.90;99.90;;;;;;5056872;28;20040;-78
2022/07/07 04:59:29;;;;;;;1999.90;999.90;;;14.90;99.90;;;;;;5050525;28;20482;-79
2022/07/07 05:01:54;;;;;;;1999.90;999.90;;;14.80;99.90;;;;;;5067653;28;20086;-79
2022/07/07 05:04:20;;;;;;;1999.90;999.90;;;14.80;99.90;;;;;;5066738;28;20063;-80
2022/07/07 05:06:46;;;;;;;1999.90;999.90;;;14.80;99.90;;;;;;5069885;28;20083;-80
2022/07/07 05:09:11;;;;;;;1999.90;999.90;;;14.80;99.90;;;;;;5072728;28;20501;-78
2022/07/07 05:11:37;;;;;;;1999.90;999.90;;;14.70;99.90;;;;;;5071443;28;20048;-80
2022/07/07 05:14:03;;;;;;;1999.90;999.90;;;14.70;99.90;;;;;;5052375;28;20517;-77
2022/07/07 05:16:29;;;;;;;1999.90;999.90;;;14.60;99.90;;;;;;5066193;28;20501;-77
2022/07/07 05:18:55;;;;;;;1999.90;999.90;;;14.60;99.90;;;;;;5069406;28;20076;-78
2022/07/07 05:21:21;;;;;;;1999.90;999.90;;;14.50;99.90;;;;;;5104001;28;20054;-77
2022/07/07 05:23:46;;;;;;;1999.90;999.90;;;14.50;99.90;;;;;;5065785;28;20044;-80
2022/07/07 05:26:12;;;;;;;1999.90;999.90;;;14.50;99.90;;;;;;5069254;28;20050;-79
2022/07/07 05:28:41;;;;;;;1999.90;999.90;;;14.50;99.90;;;;;;5090896;28;20041;-79
2022/07/07 05:31:16;;;;;;;1999.90;999.90;;;14.50;99.90;;;;;;5072765;28;20046;-79
2022/07/07 05:33:42;;;;;;;1999.90;999.90;;;14.50;99.90;;;;;;5083608;28;20085;-80
2022/07/07 05:36:09;;;;;;;1999.90;999.90;;;14.60;99.90;;;;;;5047063;28;20048;-78
2022/07/07 05:38:34;;;;;;;1999.90;999.90;;;14.60;99.90;;;;;;5068542;28;20036;-78
2022/07/07 05:41:01;;;;;;;1999.90;999.90;;;14.60;99.90;;;;;;5084113;28;20060;-76
2022/07/07 05:43:27;;;;;;;1999.90;999.90;;;14.60;99.90;;;;;;5067162;28;20465;-79
2022/07/07 05:45:53;;;;;;;1999.90;999.90;;;14.60;99.90;;;;;;5050353;28;20451;-79
2022/07/07 05:48:19;;;;;;;1999.90;999.90;;;14.60;99.90;;;;;;5066962;28;20052;-80
2022/07/07 05:50:45;;;;;;;1999.90;999.90;;;14.70;99.90;;;;;;5068523;28;20040;-79
2022/07/07 05:53:11;;;;;;;1999.90;999.90;;;14.70;99.90;;;;;;5051407;28;20130;-80
2022/07/07 05:55:37;;;;;;;1999.90;999.90;;;14.80;99.90;;;;;;5070552;28;20102;-79
2022/07/07 05:58:03;;;;;;;1999.90;999.90;;;14.80;99.90;;;;;;5055909;28;20144;-78
2022/07/07 06:00:29;;;;;;;1999.90;999.90;;;14.80;99.90;;;;;;5055687;28;20043;-79
2022/07/07 06:02:54;;;;;;;1999.90;999.90;;;14.80;99.90;;;;;;5055045;28;20044;-79
2022/07/07 06:05:20;;;;;;;1999.90;999.90;;;15.00;99.90;;;;;;5074552;28;20039;-80
2022/07/07 06:07:46;;;;;;;1999.90;999.90;;;15.00;99.90;;;;;;5072690;28;20040;-76
2022/07/07 06:10:12;;;;;;;1999.90;999.90;;;15.10;99.90;;;;;;5061798;28;20043;-78
2022/07/07 06:12:38;;;;;;;1999.90;999.90;;;15.00;99.90;;;;;;5075143;28;20398;-78
2022/07/07 06:15:04;;;;;;;1999.90;999.90;;;15.00;99.90;;;;;;5073224;28;20560;-76
2022/07/07 06:17:30;;;;;;;1999.90;999.90;;;15.00;99.90;;;;;;5086199;28;20411;-76
2022/07/07 06:19:56;;;;;;;1999.90;999.90;;;14.90;99.90;;;;;;5081142;28;20032;-79
2022/07/07 06:22:22;;;;;;;1999.90;999.90;;;14.80;99.90;;;;;;5088520;28;20032;-80
2022/07/07 06:24:48;;;;;;;1999.90;999.90;;;14.70;99.90;;;;;;5054056;28;20043;-80
2022/07/07 06:27:13;;;;;;;1999.90;999.90;;;14.80;99.90;;;;;;5072826;28;20050;-77
2022/07/07 06:29:40;;;;;;;1999.90;999.90;;;14.80;99.90;;;;;;5086037;28;20048;-78
2022/07/07 06:32:06;;;;;;;1999.90;999.90;;;15.00;99.90;;;;;;5069692;28;20381;-79
2022/07/07 06:34:31;;;;;;;1999.90;999.90;;;15.40;99.90;;;;;;5074592;28;20047;-75
2022/07/07 06:36:57;;;;;;;1999.90;999.90;;;16.10;99.90;;;;;;5061601;28;20032;-80
2022/07/07 06:39:23;;;;;;;1999.90;999.90;;;16.90;99.90;;;;;;5058482;28;20036;-79
2022/07/07 06:41:48;;;;;;;1999.90;999.90;;;17.60;99.90;;;;;;5098074;28;20101;-77
2022/07/07 06:44:14;;;;;;;1999.90;999.90;;;18.30;99.90;;;;;;5067613;28;20032;-79
2022/07/07 06:46:40;;;;;;;1999.90;999.90;;;18.60;99.90;;;;;;5059091;28;20040;-77
2022/07/07 06:49:05;;;;;;;1999.90;999.90;;;18.00;99.90;;;;;;5106663;27;20043;-77
2022/07/07 06:51:31;;;;;;;1999.90;999.90;;;17.50;99.90;;;;;;5071057;28;20043;-78
2022/07/07 06:53:58;;;;;;;1999.90;999.90;;;16.80;99.90;;;;;;5068338;28;20040;-78
2022/07/07 06:56:24;;;;;;;1999.90;999.90;;;16.40;99.90;;;;;;5056319;28;20039;-80
2022/07/07 06:58:49;;;;;;;1999.90;999.90;;;16.20;99.90;;;;;;5089983;28;20047;-79
2022/07/07 07:01:16;;;;;;;1999.90;999.90;;;16.70;99.90;;;;;;5074370;28;20406;-79
2022/07/07 07:03:41;;;;;;;1999.90;999.90;;;17.50;99.90;;;;;;5057725;28;20111;-76
2022/07/07 07:06:07;;;;;;;1999.90;999.90;;;17.70;99.90;;;;;;5090880;28;20130;-79
2022/07/07 07:08:33;;;;;;;1999.90;999.90;;;17.50;99.90;;;;;;5072843;28;20040;-78
2022/07/07 07:10:59;;;;;;;1999.90;999.90;;;17.10;99.90;;;;;;5057829;28;20039;-80
2022/07/07 07:13:25;;;;;;;1999.90;999.90;;;16.80;99.90;;;;;;5090502;28;20078;-79
2022/07/07 07:15:51;;;;;;;1999.90;999.90;;;16.60;99.90;;;;;;5068421;28;20036;-75
2022/07/07 07:18:16;;;;;;;1999.90;999.90;;;16.50;99.90;;;;;;5089914;28;20131;-79
2022/07/07 07:20:42;;;;;;;1999.90;999.90;;;16.50;99.90;;;;;;5054695;28;20486;-79
2022/07/07 07:23:08;;;;;;;1999.90;999.90;;;16.40;99.90;;;;;;5064006;28;20131;-79
2022/07/07 07:25:34;;;;;;;1999.90;999.90;;;16.60;99.90;;;;;;5071556;28;20135;-77
2022/07/07 07:28:00;;;;;;;1999.90;999.90;;;16.70;99.90;;;;;;5064516;28;20131;-79
2022/07/07 07:30:26;;;;;;;1999.90;999.90;;;16.70;99.90;;;;;;5088510;28;20421;-77
2022/07/07 07:32:51;;;;;;;1999.90;999.90;;;16.50;99.90;;;;;;5068939;28;20044;-81
2022/07/07 07:35:17;;;;;;;1999.90;999.90;;;16.30;99.90;;;;;;5069080;28;20106;-79
2022/07/07 07:37:43;;;;;;;1999.90;999.90;;;16.20;99.90;;;;;;5071483;28;20039;-81
2022/07/07 07:40:10;;;;;;;1999.90;999.90;;;16.10;99.90;;;;;;5068948;28;20062;-80
2022/07/07 07:42:37;;;;;;;1999.90;999.90;;;16.10;99.90;;;;;;5069211;28;20066;-78
2022/07/07 07:45:10;;;;;;;1999.90;999.90;;;16.10;99.90;;;;;;5071421;28;20179;-76
2022/07/07 07:47:47;;;;;;;1999.90;999.90;;;16.00;99.90;;;;;;5104837;28;20044;-78
2022/07/07 07:50:18;;;;;;;1999.90;999.90;;;16.00;99.90;;;;;;5085429;28;20046;-78
2022/07/07 07:52:44;;;;;;;1999.90;999.90;;;16.00;99.90;;;;;;5053908;28;20040;-79
2022/07/07 07:55:13;;;;;;;1999.90;999.90;;;16.10;99.90;;;;;;5070539;28;20069;-78
2022/07/07 07:57:40;;;;;;;1999.90;999.90;;;16.50;99.90;;;;;;5065467;28;20468;-79
2022/07/07 08:00:09;;;;;;;1999.90;999.90;;;16.80;99.90;;;;;;5051581;28;20047;-80
2022/07/07 08:02:35;;;;;;;1999.90;999.90;;;16.90;99.90;;;;;;5054395;28;20421;-79
2022/07/07 08:05:01;;;;;;;1999.90;999.90;;;16.80;99.90;;;;;;5073033;28;20097;-78
2022/07/07 08:07:27;;;;;;;1999.90;999.90;;;16.70;99.90;;;;;;5050794;28;20036;-74
2022/07/07 08:09:52;;;;;;;1999.90;999.90;;;16.70;99.90;;;;;;5069590;28;20032;-79
2022/07/07 08:12:18;;;;;;;1999.90;999.90;;;16.70;99.90;;;;;;5056742;28;20040;-79
2022/07/07 08:14:44;;;;;;;1999.90;999.90;;;17.20;99.90;;;;;;5070688;28;20044;-79
2022/07/07 08:17:10;;;;;;;1999.90;999.90;;;18.10;99.90;;;;;;5055292;28;20040;-80
2022/07/07 08:19:36;;;;;;;1999.90;999.90;;;18.50;99.90;;;;;;5064767;28;20573;-79
2022/07/07 08:22:01;;;;;;;1999.90;999.90;;;18.30;99.90;;;;;;5066337;28;20044;-80
2022/07/07 08:24:27;;;;;;;1999.90;999.90;;;17.90;99.90;;;;;;5073240;28;20135;-80
2022/07/07 08:26:53;;;;;;;1999.90;999.90;;;17.50;99.90;;;;;;5052143;28;20074;-79
2022/07/07 08:29:19;;;;;;;1999.90;999.90;;;17.20;99.90;;;;;;5069842;28;20552;-80
2022/07/07 08:31:44;;;;;;;1999.90;999.90;;;17.10;99.90;;;;;;5055600;28;20127;-79
2022/07/07 08:34:10;;;;;;;1999.90;999.90;;;17.00;99.90;;;;;;5085289;28;20070;-80
2022/07/07 08:36:36;;;;;;;1999.90;999.90;;;16.90;99.90;;;;;;5064653;28;20032;-80
2022/07/07 08:39:01;;;;;;;1999.90;999.90;;;17.00;99.90;;;;;;5064776;28;20074;-79
2022/07/07 08:41:27;;;;;;;1999.90;999.90;;;17.70;99.90;;;;;;5066378;28;20056;-79
2022/07/07 08:43:55;;;;;;;1999.90;999.90;;;17.90;99.90;;;;;;5047951;28;20502;-80
2022/07/07 08:46:21;;;;;;;1999.90;999.90;;;17.80;99.90;;;;;;5060795;28;20040;-78
2022/07/07 08:48:47;;;;;;;1999.90;999.90;;;17.50;99.90;;;;;;5058303;28;20563;-77
2022/07/07 08:51:15;;;;;;;1999.90;999.90;;;17.40;99.90;;;;;;5048625;28;20052;-79
2022/07/07 08:53:43;;;;;;;1999.90;999.90;;;17.70;99.90;;;;;;5056931;28;20036;-79
2022/07/07 08:56:09;;;;;;;1999.90;999.90;;;18.10;99.90;;;;;;5057669;28;20033;-80
2022/07/07 08:58:35;;;;;;;1999.90;999.90;;;18.30;99.90;;;;;;5062507;28;20089;-80
2022/07/07 09:01:05;;;;;;;1999.90;999.90;;;18.30;99.90;;;;;;5075159;28;20079;-79
2022/07/07 09:03:31;;;;;;;1999.90;999.90;;;18.00;99.90;;;;;;5041621;28;20052;-79
2022/07/07 09:05:58;;;;;;;1999.90;999.90;;;17.60;99.90;;;;;;5043833;28;20041;-80
2022/07/07 09:08:25;;;;;;;1999.90;999.90;;;17.40;99.90;;;;;;5042005;28;20050;-78
2022/07/07 09:10:51;;;;;;;1999.90;999.90;;;17.20;99.90;;;;;;5056253;28;20040;-79
2022/07/07 09:13:31;;;;;;;1999.90;999.90;;;17.30;99.90;;;;;;5045156;28;20062;-80
2022/07/07 09:16:12;;;;;;;1999.90;999.90;;;17.80;99.90;;;;;;5062631;28;20085;-80
2022/07/07 09:18:41;;;;;;;1999.90;999.90;;;18.10;99.90;;;;;;5047864;28;20417;-78
2022/07/07 09:21:25;;;;;;;1999.90;999.90;;;18.40;99.90;;;;;;5096832;28;20075;-79
2022/07/07 09:23:53;;;;;;;1999.90;999.90;;;18.20;99.90;;;;;;5064075;28;20123;-78
2022/07/07 09:26:36;;;;;;;1999.90;999.90;;;17.90;99.90;;;;;;5053019;28;20101;-80
2022/07/07 09:29:02;;;;;;;1999.90;999.90;;;17.50;99.90;;;;;;5061010;28;20873;-79
2022/07/07 09:32:00;;;;;;;1999.90;999.90;;;17.50;99.90;;;;;;5064899;28;20060;-79
2022/07/07 09:34:32;;;;;;;1999.90;999.90;;;17.70;99.90;;;;;;5068678;28;20078;-80
2022/07/07 09:39:46;;;;;;;1999.90;999.90;;;17.50;99.90;;;;;;5080203;28;20294;-79
2022/07/07 09:42:29;;;;;;;1999.90;999.90;;;17.20;99.90;;;;;;5069444;28;20044;-80
2022/07/07 09:45:04;;;;;;;1999.90;999.90;;;17.00;99.90;;;;;;5106859;28;20497;-74
2022/07/07 09:47:32;;;;;;;1999.90;999.90;;;17.00;99.90;;;;;;5072744;28;20028;-79
2022/07/07 09:49:59;;;;;;;1999.90;999.90;;;17.00;99.90;;;;;;5055589;28;20180;-79
2022/07/07 09:52:25;;;;;;;1999.90;999.90;;;17.20;99.90;;;;;;5089495;28;20390;-80
2022/07/07 09:54:51;;;;;;;1999.90;999.90;;;17.30;99.90;;;;;;5072515;28;20521;-79
2022/07/07 09:57:17;;;;;;;1999.90;999.90;;;17.40;99.90;;;;;;5070758;28;20044;-80
2022/07/07 09:59:44;;;;;;;1999.90;999.90;;;17.30;99.90;;;;;;5073448;28;20032;-79
2022/07/07 10:02:22;;;;;;;1999.90;999.90;;;17.30;99.90;;;;;;5074104;28;20157;-80
2022/07/07 10:04:50;;;;;;;1999.90;999.90;;;17.20;99.90;;;;;;5067428;28;20036;-80
2022/07/07 10:07:18;;;;;;;1999.90;999.90;;;17.10;99.90;;;;;;5052515;28;20137;-73
2022/07/07 10:09:47;;;;;;;1999.90;999.90;;;16.90;99.90;;;;;;5074039;28;20040;-80
2022/07/07 10:12:16;;;;;;;1999.90;999.90;;;16.80;99.90;;;;;;5072276;28;20036;-79
2022/07/07 10:14:43;;;;;;;1999.90;999.90;;;16.60;99.90;;;;;;5067853;28;20048;-80
2022/07/07 10:17:11;;;;;;;1999.90;999.90;;;16.40;99.90;;;;;;5072452;28;20513;-75
2022/07/07 10:19:37;;;;;;;1999.90;999.90;;;16.40;99.90;;;;;;5103415;27;20046;-80
2022/07/07 10:22:04;;;;;;;1999.90;999.90;;;16.40;99.90;;;;;;5071579;28;20126;-79
2022/07/07 10:24:35;;;;;;;1999.90;999.90;;;16.40;99.90;;;;;;5066484;28;20081;-78
2022/07/07 10:27:03;;;;;;;1999.90;999.90;;;16.20;99.90;;;;;;5078948;28;20350;-80
2022/07/07 10:29:51;;;;;;;1999.90;999.90;;;16.10;99.90;;;;;;5104937;28;20131;-77
2022/07/07 10:32:40;;;;;;;1999.90;999.90;;;16.10;99.90;;;;;;5060820;28;20044;-78
2022/07/07 10:35:12;;;;;;;1999.90;999.90;;;16.20;99.90;;;;;;5097175;28;20110;-78
2022/07/07 10:37:44;;;;;;;1999.90;999.90;;;16.30;99.90;;;;;;5072538;28;20051;-76
2022/07/07 10:40:28;;;;;;;1999.90;999.90;;;16.50;99.90;;;;;;5071535;28;20059;-77
2022/07/07 10:43:24;;;;;;;1999.90;999.90;;;16.80;99.90;;;;;;5095450;28;20052;-78
2022/07/07 10:45:52;;;;;;;1999.90;999.90;;;17.20;99.90;;;;;;5067981;28;20047;-79
2022/07/07 10:48:47;;;;;;;1999.90;999.90;;;17.40;99.90;;;;;;5084993;28;20091;-80
2022/07/07 10:51:21;;;;;;;1999.90;999.90;;;17.40;99.90;;;;;;5082785;28;20044;-78
2022/07/07 10:54:03;;;;;;;1999.90;999.90;;;17.30;99.90;;;;;;5059133;28;20044;-79
2022/07/07 10:56:51;;;;;;;1999.90;999.90;;;17.40;99.90;;;;;;5072808;28;20497;-79
2022/07/07 10:59:20;;;;;;;1999.90;999.90;;;17.40;99.90;;;;;;5087910;28;20051;-78
2022/07/07 11:02:01;;;;;;;1999.90;999.90;;;17.20;99.90;;;;;;5086108;28;20793;-80
2022/07/07 11:04:42;;;;;;;1999.90;999.90;;;16.90;99.90;;;;;;5076759;28;20801;-79
2022/07/07 11:07:19;;;;;;;1999.90;999.90;;;16.70;99.90;;;;;;5084640;28;20454;-79
2022/07/07 11:10:04;;;;;;;1999.90;999.90;;;16.80;99.90;;;;;;5065903;28;20055;-79
2022/07/07 11:13:03;;;;;;;1999.90;999.90;;;17.00;99.90;;;;;;5071007;28;20043;-76
2022/07/07 11:15:35;;;;;;;1999.90;999.90;;;17.00;99.90;;;;;;5055522;28;20094;-76
2022/07/07 11:18:01;;;;;;;1999.90;999.90;;;16.90;99.90;;;;;;5077834;28;20397;-78
2022/07/07 11:20:29;;;;;;;1999.90;999.90;;;16.90;99.90;;;;;;5072071;28;20054;-78
2022/07/07 11:23:13;;;;;;;1999.90;999.90;;;16.90;99.90;;;;;;5101330;28;20087;-78
2022/07/07 11:25:41;;;;;;;1999.90;999.90;;;16.90;99.90;;;;;;5071070;28;20115;-78
2022/07/07 11:28:08;;;;;;;1999.90;999.90;;;17.00;99.90;;;;;;5076595;28;20066;-79
2022/07/07 11:30:35;;;;;;;1999.90;999.90;;;17.10;99.90;;;;;;5073929;28;20428;-78
2022/07/07 11:33:02;;;;;;;1999.90;999.90;;;17.30;99.90;;;;;;5063880;28;20401;-79
2022/07/07 11:35:37;;;;;;;1999.90;999.90;;;17.40;99.90;;;;;;5100195;28;20436;-79
2022/07/07 11:38:11;;;;;;;1999.90;999.90;;;17.50;99.90;;;;;;5061751;28;20048;-75
2022/07/07 11:40:42;;;;;;;1999.90;999.90;;;17.70;99.90;;;;;;5062653;28;20047;-79
2022/07/07 11:43:28;;;;;;;1999.90;999.90;;;17.70;99.90;;;;;;5055322;28;20460;-78
2022/07/07 11:45:54;;;;;;;1999.90;999.90;;;17.60;99.90;;;;;;5078797;28;20634;-78
2022/07/07 11:48:22;;;;;;;1999.90;999.90;;;17.50;99.90;;;;;;5063964;28;20169;-77
2022/07/07 11:50:49;;;;;;;1999.90;999.90;;;17.40;99.90;;;;;;5063568;28;20047;-78
2022/07/07 11:53:15;;;;;;;1999.90;999.90;;;17.40;99.90;;;;;;5061494;28;20032;-75
2022/07/07 11:55:42;;;;;;;1999.90;999.90;;;17.30;99.90;;;;;;5066502;28;20036;-77
2022/07/07 11:58:09;;;;;;;1999.90;999.90;;;17.30;99.90;;;;;;5073682;28;20052;-77
2022/07/07 12:00:37;;;;;;;1999.90;999.90;;;17.20;99.90;;;;;;5094699;28;20133;-77
2022/07/07 12:03:05;;;;;;;1999.90;999.90;;;17.20;99.90;;;;;;5064949;28;20044;-78
2022/07/07 12:05:33;;;;;;;1999.90;999.90;;;17.30;99.90;;;;;;5065963;28;20522;-78